ムンバイ の空港の天気 - METARとTAF

チャットラパティー・シヴァージー国際空港 ( VABB / BOM ) - インド ムンバイ
飛行場実況気象(Metar)
観測時間09/25 05:30 IST (09/25 00:00 UTC)
風向・風速静穏 0m/s
視程3000m
天気現象煙霧
少しの雲 雲底高度 610m
全天の4割程度の雲 雲底高度 3050m
気温26℃
湿度100%
気圧1007hPa
METARVABB 250000Z 00000KT 3000 HZ FEW020 SCT100 26/26 Q1007 NOSIG
過去の天気等 Google飛行場航空写真 Wunderground天気予報

過去48時間のMETAR

飛行場予報(TAF)
発表時間: 9/25 04:30 IST (9/24 23:00 UTC)
予報対象時間: 25日5時 IST ~ 26日11時 IST
風向・風速不定 2m/s
視程2500m
天気現象弱い雨 煙霧
全天の4割程度の雲 雲底高度 550m
全天の4割程度の雲 雲底高度 760m
全天の8割程度の雲 雲底高度 2740m
25日5時 IST ~ 25日11時 IST に一時的に
視程1500m
天気現象弱い雷雨 しゅう雨
全天の4割程度の雲 雲底高度 300m
少しの積乱雲 雲底高度 910m
全天の8割程度の雲 雲底高度 2440m
25日8時 IST ~ 25日10時 IST に徐々に
風向・風速南西 4m/s
視程3000m
天気現象弱い雨 煙霧
25日11時 IST ~ 25日13時 IST に徐々に
風向・風速西 5m/s
視程4000m
天気現象煙霧
25日18時 IST ~ 25日20時 IST に徐々に
風向・風速西南西 3m/s
視程3000m
天気現象弱い霧雨 煙霧
26日2時 IST ~ 26日4時 IST に徐々に
風向・風速不定 2m/s
視程2500m
天気現象弱い雨 煙霧
TAF VABB 242300Z 2500/2606 VRB03KT 2500 -RA HZ SCT018 SCT025 BKN090
TEMPO 2500/2506 1500 -TSRA SHRA SCT010 FEW030CB BKN080
BECMG 2503/2505 22007KT 3000 -RA HZ
BECMG 2506/2508 26010KT 4000 HZ
BECMG 2513/2515 25005KT 3000 -DZ HZ
BECMG 2521/2523 VRB03KT 2500 -RA HZ